sensor_id;sensor_type;location;lat;lon;timestamp;P1;durP1;ratioP1;P2;durP2;ratioP2
78324;SDS011;67584;51.400;6.692;2023-02-28T00:00:48;7.97;;;6.20;;
78324;SDS011;67584;51.400;6.692;2023-02-28T00:03:14;7.78;;;6.63;;
78324;SDS011;67584;51.400;6.692;2023-02-28T00:05:41;10.15;;;6.85;;
78324;SDS011;67584;51.400;6.692;2023-02-28T00:08:07;9.00;;;6.43;;
78324;SDS011;67584;51.400;6.692;2023-02-28T00:10:33;10.75;;;5.80;;
78324;SDS011;67584;51.400;6.692;2023-02-28T00:13:01;10.25;;;5.75;;
78324;SDS011;67584;51.400;6.692;2023-02-28T00:15:28;10.93;;;6.00;;
78324;SDS011;67584;51.400;6.692;2023-02-28T00:17:54;6.50;;;5.38;;
78324;SDS011;67584;51.400;6.692;2023-02-28T00:20:19;7.90;;;6.22;;
78324;SDS011;67584;51.400;6.692;2023-02-28T00:22:46;7.57;;;5.22;;
78324;SDS011;67584;51.400;6.692;2023-02-28T00:25:15;8.15;;;5.78;;
78324;SDS011;67584;51.400;6.692;2023-02-28T00:27:43;8.15;;;5.13;;
78324;SDS011;67584;51.400;6.692;2023-02-28T00:30:11;6.90;;;5.00;;
78324;SDS011;67584;51.400;6.692;2023-02-28T00:32:38;7.63;;;5.55;;
78324;SDS011;67584;51.400;6.692;2023-02-28T00:35:05;8.27;;;5.60;;
78324;SDS011;67584;51.400;6.692;2023-02-28T00:37:32;6.75;;;5.30;;
78324;SDS011;67584;51.400;6.692;2023-02-28T00:39:58;7.78;;;5.38;;
78324;SDS011;67584;51.400;6.692;2023-02-28T00:42:24;6.70;;;5.40;;
78324;SDS011;67584;51.400;6.692;2023-02-28T00:44:50;8.07;;;5.65;;
78324;SDS011;67584;51.400;6.692;2023-02-28T00:47:16;12.57;;;5.72;;
78324;SDS011;67584;51.400;6.692;2023-02-28T00:49:42;8.27;;;5.18;;
78324;SDS011;67584;51.400;6.692;2023-02-28T00:52:08;7.97;;;5.95;;
78324;SDS011;67584;51.400;6.692;2023-02-28T00:54:34;9.82;;;5.80;;
78324;SDS011;67584;51.400;6.692;2023-02-28T00:57:00;7.78;;;5.65;;
78324;SDS011;67584;51.400;6.692;2023-02-28T00:59:26;7.30;;;5.40;;
78324;SDS011;67584;51.400;6.692;2023-02-28T01:01:51;7.88;;;5.63;;
78324;SDS011;67584;51.400;6.692;2023-02-28T01:04:17;9.13;;;5.57;;
78324;SDS011;67584;51.400;6.692;2023-02-28T01:06:43;8.07;;;6.05;;
78324;SDS011;67584;51.400;6.692;2023-02-28T01:09:10;7.53;;;4.80;;
78324;SDS011;67584;51.400;6.692;2023-02-28T01:11:36;6.55;;;4.80;;
78324;SDS011;67584;51.400;6.692;2023-02-28T01:14:02;8.82;;;5.25;;
78324;SDS011;67584;51.400;6.692;2023-02-28T01:16:29;8.00;;;5.10;;
78324;SDS011;67584;51.400;6.692;2023-02-28T01:18:55;6.97;;;4.70;;
78324;SDS011;67584;51.400;6.692;2023-02-28T01:21:21;6.47;;;4.75;;
78324;SDS011;67584;51.400;6.692;2023-02-28T01:23:47;7.00;;;5.28;;
78324;SDS011;67584;51.400;6.692;2023-02-28T01:26:14;6.35;;;5.00;;
78324;SDS011;67584;51.400;6.692;2023-02-28T01:28:42;6.53;;;5.03;;
78324;SDS011;67584;51.400;6.692;2023-02-28T01:31:09;5.65;;;4.15;;
78324;SDS011;67584;51.400;6.692;2023-02-28T01:33:36;6.13;;;4.70;;
78324;SDS011;67584;51.400;6.692;2023-02-28T01:36:07;6.72;;;4.57;;
78324;SDS011;67584;51.400;6.692;2023-02-28T01:38:41;5.53;;;3.97;;
78324;SDS011;67584;51.400;6.692;2023-02-28T01:41:07;5.93;;;4.50;;
78324;SDS011;67584;51.400;6.692;2023-02-28T01:46:08;4.30;;;3.42;;
78324;SDS011;67584;51.400;6.692;2023-02-28T01:48:36;5.60;;;4.05;;
78324;SDS011;67584;51.400;6.692;2023-02-28T01:51:07;5.43;;;3.97;;
78324;SDS011;67584;51.400;6.692;2023-02-28T01:53:43;7.30;;;3.60;;
78324;SDS011;67584;51.400;6.692;2023-02-28T01:56:12;6.60;;;4.60;;
78324;SDS011;67584;51.400;6.692;2023-02-28T02:01:14;5.78;;;3.50;;
78324;SDS011;67584;51.400;6.692;2023-02-28T02:03:47;6.22;;;4.03;;
78324;SDS011;67584;51.400;6.692;2023-02-28T02:06:24;7.45;;;3.22;;
78324;SDS011;67584;51.400;6.692;2023-02-28T02:08:53;5.85;;;3.42;;
78324;SDS011;67584;51.400;6.692;2023-02-28T02:11:20;5.82;;;3.97;;
78324;SDS011;67584;51.400;6.692;2023-02-28T02:14:07;5.63;;;4.00;;
78324;SDS011;67584;51.400;6.692;2023-02-28T02:22:36;4.47;;;3.40;;
78324;SDS011;67584;51.400;6.692;2023-02-28T02:36:42;6.72;;;3.88;;
78324;SDS011;67584;51.400;6.692;2023-02-28T02:42:27;6.55;;;4.05;;
78324;SDS011;67584;51.400;6.692;2023-02-28T02:45:01;5.65;;;4.22;;
78324;SDS011;67584;51.400;6.692;2023-02-28T02:47:34;6.78;;;3.97;;
78324;SDS011;67584;51.400;6.692;2023-02-28T02:50:04;4.97;;;3.92;;
78324;SDS011;67584;51.400;6.692;2023-02-28T02:52:34;6.05;;;3.90;;
78324;SDS011;67584;51.400;6.692;2023-02-28T02:55:05;5.00;;;3.95;;
78324;SDS011;67584;51.400;6.692;2023-02-28T03:00:17;6.30;;;3.78;;
78324;SDS011;67584;51.400;6.692;2023-02-28T03:02:48;5.32;;;3.88;;
78324;SDS011;67584;51.400;6.692;2023-02-28T03:07:45;7.30;;;4.15;;
78324;SDS011;67584;51.400;6.692;2023-02-28T03:13:08;7.57;;;4.60;;
78324;SDS011;67584;51.400;6.692;2023-02-28T03:26:52;6.72;;;5.05;;
78324;SDS011;67584;51.400;6.692;2023-02-28T03:32:14;5.03;;;4.20;;
78324;SDS011;67584;51.400;6.692;2023-02-28T03:34:52;7.40;;;4.13;;
78324;SDS011;67584;51.400;6.692;2023-02-28T03:37:21;8.60;;;4.18;;
78324;SDS011;67584;51.400;6.692;2023-02-28T03:40:00;6.07;;;4.28;;
78324;SDS011;67584;51.400;6.692;2023-02-28T03:42:34;5.72;;;4.20;;
78324;SDS011;67584;51.400;6.692;2023-02-28T03:45:02;7.10;;;4.07;;
78324;SDS011;67584;51.400;6.692;2023-02-28T03:47:39;8.05;;;4.40;;
78324;SDS011;67584;51.400;6.692;2023-02-28T03:50:21;9.85;;;4.55;;
78324;SDS011;67584;51.400;6.692;2023-02-28T03:52:51;7.53;;;4.13;;
78324;SDS011;67584;51.400;6.692;2023-02-28T03:55:18;8.45;;;4.97;;
78324;SDS011;67584;51.400;6.692;2023-02-28T04:00:53;9.50;;;5.47;;
78324;SDS011;67584;51.400;6.692;2023-02-28T04:03:24;8.75;;;5.00;;
78324;SDS011;67584;51.400;6.692;2023-02-28T04:05:53;11.27;;;6.30;;
78324;SDS011;67584;51.400;6.692;2023-02-28T04:08:21;6.97;;;4.88;;
78324;SDS011;67584;51.400;6.692;2023-02-28T04:10:59;9.07;;;5.72;;
78324;SDS011;67584;51.400;6.692;2023-02-28T04:13:45;6.38;;;4.75;;
78324;SDS011;67584;51.400;6.692;2023-02-28T04:16:11;10.38;;;5.53;;
78324;SDS011;67584;51.400;6.692;2023-02-28T04:18:38;8.18;;;5.22;;
78324;SDS011;67584;51.400;6.692;2023-02-28T04:21:05;6.53;;;4.30;;
78324;SDS011;67584;51.400;6.692;2023-02-28T04:23:32;9.25;;;4.93;;
78324;SDS011;67584;51.400;6.692;2023-02-28T04:25:57;7.93;;;4.55;;
78324;SDS011;67584;51.400;6.692;2023-02-28T04:28:23;9.48;;;4.88;;
78324;SDS011;67584;51.400;6.692;2023-02-28T04:30:59;6.60;;;4.45;;
78324;SDS011;67584;51.400;6.692;2023-02-28T04:33:27;8.45;;;5.03;;
78324;SDS011;67584;51.400;6.692;2023-02-28T04:36:01;8.55;;;4.88;;
78324;SDS011;67584;51.400;6.692;2023-02-28T04:38:32;5.97;;;4.15;;
78324;SDS011;67584;51.400;6.692;2023-02-28T04:41:03;7.60;;;4.07;;
78324;SDS011;67584;51.400;6.692;2023-02-28T04:43:29;8.63;;;4.20;;
78324;SDS011;67584;51.400;6.692;2023-02-28T04:45:56;5.00;;;4.20;;
78324;SDS011;67584;51.400;6.692;2023-02-28T04:48:27;6.40;;;4.05;;
78324;SDS011;67584;51.400;6.692;2023-02-28T04:50:54;7.60;;;3.65;;
78324;SDS011;67584;51.400;6.692;2023-02-28T04:53:20;5.20;;;3.67;;
78324;SDS011;67584;51.400;6.692;2023-02-28T04:55:46;7.00;;;3.75;;
78324;SDS011;67584;51.400;6.692;2023-02-28T04:58:13;5.18;;;4.07;;
78324;SDS011;67584;51.400;6.692;2023-02-28T05:00:39;5.28;;;3.50;;
78324;SDS011;67584;51.400;6.692;2023-02-28T05:03:05;5.53;;;3.92;;
78324;SDS011;67584;51.400;6.692;2023-02-28T05:05:31;5.47;;;3.92;;
78324;SDS011;67584;51.400;6.692;2023-02-28T05:07:56;4.93;;;3.22;;
78324;SDS011;67584;51.400;6.692;2023-02-28T05:10:22;5.50;;;3.60;;
78324;SDS011;67584;51.400;6.692;2023-02-28T05:12:48;9.32;;;4.47;;
78324;SDS011;67584;51.400;6.692;2023-02-28T05:15:15;5.75;;;4.13;;
78324;SDS011;67584;51.400;6.692;2023-02-28T05:17:41;5.40;;;4.13;;
78324;SDS011;67584;51.400;6.692;2023-02-28T05:20:08;6.70;;;4.00;;
78324;SDS011;67584;51.400;6.692;2023-02-28T05:22:42;6.55;;;3.92;;
78324;SDS011;67584;51.400;6.692;2023-02-28T05:25:13;7.55;;;3.80;;
78324;SDS011;67584;51.400;6.692;2023-02-28T05:27:42;5.68;;;4.00;;
78324;SDS011;67584;51.400;6.692;2023-02-28T05:30:08;4.93;;;3.20;;
78324;SDS011;67584;51.400;6.692;2023-02-28T05:32:38;6.20;;;3.63;;
78324;SDS011;67584;51.400;6.692;2023-02-28T05:35:08;4.88;;;3.35;;
78324;SDS011;67584;51.400;6.692;2023-02-28T05:37:37;6.97;;;3.65;;
78324;SDS011;67584;51.400;6.692;2023-02-28T05:40:04;5.35;;;3.33;;
78324;SDS011;67584;51.400;6.692;2023-02-28T05:42:32;5.40;;;3.97;;
78324;SDS011;67584;51.400;6.692;2023-02-28T05:44:58;6.32;;;3.95;;
78324;SDS011;67584;51.400;6.692;2023-02-28T05:47:24;6.28;;;3.75;;
78324;SDS011;67584;51.400;6.692;2023-02-28T05:49:50;5.68;;;4.15;;
78324;SDS011;67584;51.400;6.692;2023-02-28T05:52:15;7.20;;;4.70;;
78324;SDS011;67584;51.400;6.692;2023-02-28T05:54:42;8.52;;;4.22;;
78324;SDS011;67584;51.400;6.692;2023-02-28T05:57:08;7.78;;;4.93;;
78324;SDS011;67584;51.400;6.692;2023-02-28T05:59:34;7.03;;;3.97;;
78324;SDS011;67584;51.400;6.692;2023-02-28T06:02:00;5.05;;;3.90;;
78324;SDS011;67584;51.400;6.692;2023-02-28T06:04:25;5.90;;;3.50;;
78324;SDS011;67584;51.400;6.692;2023-02-28T06:06:51;4.50;;;3.80;;
78324;SDS011;67584;51.400;6.692;2023-02-28T06:09:17;4.07;;;3.55;;
78324;SDS011;67584;51.400;6.692;2023-02-28T06:11:44;8.38;;;3.38;;
78324;SDS011;67584;51.400;6.692;2023-02-28T06:14:13;5.95;;;3.30;;
78324;SDS011;67584;51.400;6.692;2023-02-28T06:16:41;4.50;;;3.40;;
78324;SDS011;67584;51.400;6.692;2023-02-28T06:19:08;5.68;;;3.47;;
78324;SDS011;67584;51.400;6.692;2023-02-28T06:21:34;4.05;;;3.00;;
78324;SDS011;67584;51.400;6.692;2023-02-28T06:24:00;3.38;;;3.05;;
78324;SDS011;67584;51.400;6.692;2023-02-28T06:26:26;5.38;;;3.00;;
78324;SDS011;67584;51.400;6.692;2023-02-28T06:28:52;4.18;;;3.45;;
78324;SDS011;67584;51.400;6.692;2023-02-28T06:31:18;3.75;;;3.40;;
78324;SDS011;67584;51.400;6.692;2023-02-28T06:33:44;4.82;;;2.97;;
78324;SDS011;67584;51.400;6.692;2023-02-28T06:36:11;5.72;;;3.30;;
78324;SDS011;67584;51.400;6.692;2023-02-28T06:38:38;5.20;;;3.10;;
78324;SDS011;67584;51.400;6.692;2023-02-28T06:41:05;4.65;;;3.00;;
78324;SDS011;67584;51.400;6.692;2023-02-28T06:43:33;5.72;;;3.42;;
78324;SDS011;67584;51.400;6.692;2023-02-28T06:46:01;6.38;;;3.15;;
78324;SDS011;67584;51.400;6.692;2023-02-28T06:48:29;3.90;;;3.33;;
78324;SDS011;67584;51.400;6.692;2023-02-28T06:51:12;4.13;;;3.10;;
78324;SDS011;67584;51.400;6.692;2023-02-28T06:53:43;4.25;;;3.13;;
78324;SDS011;67584;51.400;6.692;2023-02-28T06:56:10;5.05;;;3.50;;
78324;SDS011;67584;51.400;6.692;2023-02-28T06:58:38;4.32;;;3.55;;
78324;SDS011;67584;51.400;6.692;2023-02-28T07:01:05;6.13;;;3.13;;
78324;SDS011;67584;51.400;6.692;2023-02-28T07:03:31;5.68;;;3.35;;
78324;SDS011;67584;51.400;6.692;2023-02-28T07:05:57;5.13;;;3.45;;
78324;SDS011;67584;51.400;6.692;2023-02-28T07:08:24;4.43;;;3.47;;
78324;SDS011;67584;51.400;6.692;2023-02-28T07:10:55;4.50;;;3.10;;
78324;SDS011;67584;51.400;6.692;2023-02-28T07:13:22;4.32;;;3.35;;
78324;SDS011;67584;51.400;6.692;2023-02-28T07:16:01;4.93;;;3.25;;
78324;SDS011;67584;51.400;6.692;2023-02-28T07:18:29;6.03;;;3.33;;
78324;SDS011;67584;51.400;6.692;2023-02-28T07:20:55;3.58;;;2.92;;
78324;SDS011;67584;51.400;6.692;2023-02-28T07:23:21;6.03;;;3.20;;
78324;SDS011;67584;51.400;6.692;2023-02-28T07:25:49;7.60;;;3.92;;
78324;SDS011;67584;51.400;6.692;2023-02-28T07:28:15;4.47;;;3.35;;
78324;SDS011;67584;51.400;6.692;2023-02-28T07:30:41;4.93;;;3.17;;
78324;SDS011;67584;51.400;6.692;2023-02-28T07:33:07;4.38;;;3.00;;
78324;SDS011;67584;51.400;6.692;2023-02-28T07:35:33;5.60;;;3.22;;
78324;SDS011;67584;51.400;6.692;2023-02-28T07:37:59;4.38;;;3.20;;
78324;SDS011;67584;51.400;6.692;2023-02-28T07:40:26;5.43;;;3.50;;
78324;SDS011;67584;51.400;6.692;2023-02-28T07:42:52;5.45;;;3.50;;
78324;SDS011;67584;51.400;6.692;2023-02-28T07:45:18;4.32;;;2.92;;
78324;SDS011;67584;51.400;6.692;2023-02-28T07:47:44;4.13;;;3.42;;
78324;SDS011;67584;51.400;6.692;2023-02-28T07:50:12;5.80;;;3.58;;
78324;SDS011;67584;51.400;6.692;2023-02-28T07:52:39;9.38;;;5.05;;
78324;SDS011;67584;51.400;6.692;2023-02-28T07:55:06;6.75;;;4.05;;
78324;SDS011;67584;51.400;6.692;2023-02-28T07:57:34;4.70;;;3.63;;
78324;SDS011;67584;51.400;6.692;2023-02-28T08:00:00;4.40;;;3.30;;
78324;SDS011;67584;51.400;6.692;2023-02-28T08:02:36;5.90;;;3.42;;
78324;SDS011;67584;51.400;6.692;2023-02-28T08:05:02;3.75;;;3.28;;
78324;SDS011;67584;51.400;6.692;2023-02-28T08:07:28;6.22;;;3.95;;
78324;SDS011;67584;51.400;6.692;2023-02-28T08:09:54;4.38;;;3.63;;
78324;SDS011;67584;51.400;6.692;2023-02-28T08:12:20;5.88;;;3.50;;
78324;SDS011;67584;51.400;6.692;2023-02-28T08:14:46;5.88;;;4.20;;
78324;SDS011;67584;51.400;6.692;2023-02-28T08:17:11;5.30;;;3.75;;
78324;SDS011;67584;51.400;6.692;2023-02-28T08:19:37;6.93;;;3.75;;
78324;SDS011;67584;51.400;6.692;2023-02-28T08:22:04;4.30;;;3.67;;
78324;SDS011;67584;51.400;6.692;2023-02-28T08:24:30;8.55;;;3.75;;
78324;SDS011;67584;51.400;6.692;2023-02-28T08:26:56;4.13;;;3.42;;
78324;SDS011;67584;51.400;6.692;2023-02-28T08:29:22;5.00;;;3.22;;
78324;SDS011;67584;51.400;6.692;2023-02-28T08:31:49;4.68;;;3.10;;
78324;SDS011;67584;51.400;6.692;2023-02-28T08:34:15;4.82;;;3.75;;
78324;SDS011;67584;51.400;6.692;2023-02-28T08:36:41;3.85;;;3.15;;
78324;SDS011;67584;51.400;6.692;2023-02-28T08:39:11;8.32;;;3.63;;
78324;SDS011;67584;51.400;6.692;2023-02-28T08:41:37;3.72;;;3.00;;
78324;SDS011;67584;51.400;6.692;2023-02-28T08:44:03;5.95;;;2.85;;
78324;SDS011;67584;51.400;6.692;2023-02-28T08:46:29;3.38;;;2.95;;
78324;SDS011;67584;51.400;6.692;2023-02-28T08:48:55;3.40;;;2.70;;
78324;SDS011;67584;51.400;6.692;2023-02-28T08:51:25;5.32;;;3.13;;
78324;SDS011;67584;51.400;6.692;2023-02-28T08:53:58;4.28;;;3.35;;
78324;SDS011;67584;51.400;6.692;2023-02-28T08:56:25;5.22;;;3.55;;
78324;SDS011;67584;51.400;6.692;2023-02-28T08:58:53;5.38;;;3.13;;
78324;SDS011;67584;51.400;6.692;2023-02-28T09:01:22;4.07;;;3.67;;
78324;SDS011;67584;51.400;6.692;2023-02-28T09:03:50;5.78;;;3.35;;
78324;SDS011;67584;51.400;6.692;2023-02-28T09:06:17;5.00;;;3.22;;
78324;SDS011;67584;51.400;6.692;2023-02-28T09:08:44;3.72;;;3.10;;
78324;SDS011;67584;51.400;6.692;2023-02-28T09:11:10;3.63;;;2.95;;
78324;SDS011;67584;51.400;6.692;2023-02-28T09:13:37;4.20;;;2.70;;
78324;SDS011;67584;51.400;6.692;2023-02-28T09:16:05;5.57;;;3.13;;
78324;SDS011;67584;51.400;6.692;2023-02-28T09:18:33;3.47;;;2.53;;
78324;SDS011;67584;51.400;6.692;2023-02-28T09:21:07;3.45;;;2.58;;
78324;SDS011;67584;51.400;6.692;2023-02-28T09:23:36;3.40;;;2.67;;
78324;SDS011;67584;51.400;6.692;2023-02-28T09:26:03;3.17;;;2.50;;
78324;SDS011;67584;51.400;6.692;2023-02-28T09:28:29;3.95;;;2.72;;
78324;SDS011;67584;51.400;6.692;2023-02-28T09:30:55;3.88;;;2.35;;
78324;SDS011;67584;51.400;6.692;2023-02-28T09:33:24;2.97;;;2.53;;
78324;SDS011;67584;51.400;6.692;2023-02-28T09:35:50;2.88;;;2.42;;
78324;SDS011;67584;51.400;6.692;2023-02-28T09:38:22;4.10;;;2.83;;
78324;SDS011;67584;51.400;6.692;2023-02-28T09:40:52;3.28;;;2.80;;
78324;SDS011;67584;51.400;6.692;2023-02-28T09:43:22;3.20;;;2.53;;
78324;SDS011;67584;51.400;6.692;2023-02-28T09:45:52;2.78;;;2.30;;
78324;SDS011;67584;51.400;6.692;2023-02-28T09:48:40;3.00;;;2.60;;
78324;SDS011;67584;51.400;6.692;2023-02-28T09:51:12;2.70;;;2.50;;
78324;SDS011;67584;51.400;6.692;2023-02-28T09:53:50;3.67;;;2.50;;
78324;SDS011;67584;51.400;6.692;2023-02-28T10:01:53;2.63;;;2.33;;
78324;SDS011;67584;51.400;6.692;2023-02-28T10:04:35;2.80;;;2.50;;
78324;SDS011;67584;51.400;6.692;2023-02-28T10:07:44;3.08;;;2.30;;
78324;SDS011;67584;51.400;6.692;2023-02-28T10:10:24;2.60;;;2.40;;
78324;SDS011;67584;51.400;6.692;2023-02-28T10:12:59;3.38;;;2.72;;
78324;SDS011;67584;51.400;6.692;2023-02-28T10:15:30;3.20;;;2.80;;
78324;SDS011;67584;51.400;6.692;2023-02-28T10:17:58;4.63;;;2.80;;
78324;SDS011;67584;51.400;6.692;2023-02-28T10:20:28;3.58;;;2.30;;
78324;SDS011;67584;51.400;6.692;2023-02-28T10:23:04;5.00;;;2.67;;
78324;SDS011;67584;51.400;6.692;2023-02-28T10:25:47;2.60;;;2.40;;
78324;SDS011;67584;51.400;6.692;2023-02-28T10:28:19;3.42;;;2.47;;
78324;SDS011;67584;51.400;6.692;2023-02-28T10:30:46;2.53;;;2.13;;
78324;SDS011;67584;51.400;6.692;2023-02-28T10:33:18;4.80;;;2.88;;
78324;SDS011;67584;51.400;6.692;2023-02-28T10:35:50;2.58;;;2.03;;
78324;SDS011;67584;51.400;6.692;2023-02-28T10:38:32;4.10;;;2.22;;
78324;SDS011;67584;51.400;6.692;2023-02-28T10:43:32;5.80;;;2.40;;
78324;SDS011;67584;51.400;6.692;2023-02-28T10:48:37;2.80;;;2.30;;
78324;SDS011;67584;51.400;6.692;2023-02-28T10:51:10;2.25;;;2.05;;
78324;SDS011;67584;51.400;6.692;2023-02-28T10:53:40;3.65;;;2.67;;
78324;SDS011;67584;51.400;6.692;2023-02-28T11:01:45;2.47;;;2.28;;
78324;SDS011;67584;51.400;6.692;2023-02-28T11:04:16;6.10;;;2.65;;
78324;SDS011;67584;51.400;6.692;2023-02-28T11:07:02;4.00;;;2.28;;
78324;SDS011;67584;51.400;6.692;2023-02-28T11:09:46;3.92;;;2.55;;
78324;SDS011;67584;51.400;6.692;2023-02-28T11:12:22;2.70;;;2.33;;
78324;SDS011;67584;51.400;6.692;2023-02-28T11:14:49;3.20;;;2.40;;
78324;SDS011;67584;51.400;6.692;2023-02-28T11:19:52;4.78;;;2.88;;
78324;SDS011;67584;51.400;6.692;2023-02-28T11:22:23;3.60;;;2.67;;
78324;SDS011;67584;51.400;6.692;2023-02-28T11:24:54;4.50;;;2.30;;
78324;SDS011;67584;51.400;6.692;2023-02-28T11:27:39;2.90;;;2.05;;
78324;SDS011;67584;51.400;6.692;2023-02-28T11:30:33;2.70;;;2.30;;
78324;SDS011;67584;51.400;6.692;2023-02-28T11:35:56;3.53;;;2.42;;
78324;SDS011;67584;51.400;6.692;2023-02-28T11:38:26;3.78;;;2.55;;
78324;SDS011;67584;51.400;6.692;2023-02-28T11:43:30;3.90;;;2.13;;
78324;SDS011;67584;51.400;6.692;2023-02-28T11:46:54;2.75;;;2.20;;
78324;SDS011;67584;51.400;6.692;2023-02-28T12:11:11;2.95;;;2.47;;
78324;SDS011;67584;51.400;6.692;2023-02-28T12:14:18;3.92;;;2.20;;
78324;SDS011;67584;51.400;6.692;2023-02-28T12:27:26;3.75;;;2.38;;
78324;SDS011;67584;51.400;6.692;2023-02-28T12:29:58;4.07;;;2.30;;
78324;SDS011;67584;51.400;6.692;2023-02-28T12:33:09;3.05;;;2.05;;
78324;SDS011;67584;51.400;6.692;2023-02-28T12:38:19;3.42;;;2.42;;
78324;SDS011;67584;51.400;6.692;2023-02-28T12:40:50;3.08;;;2.55;;
78324;SDS011;67584;51.400;6.692;2023-02-28T12:43:19;3.17;;;2.30;;
78324;SDS011;67584;51.400;6.692;2023-02-28T12:45:55;3.70;;;3.00;;
78324;SDS011;67584;51.400;6.692;2023-02-28T12:48:37;3.92;;;2.65;;
78324;SDS011;67584;51.400;6.692;2023-02-28T12:51:07;3.42;;;2.50;;
78324;SDS011;67584;51.400;6.692;2023-02-28T12:59:41;4.60;;;2.42;;
78324;SDS011;67584;51.400;6.692;2023-02-28T13:05:12;4.32;;;2.63;;
78324;SDS011;67584;51.400;6.692;2023-02-28T13:10:38;2.75;;;2.10;;
78324;SDS011;67584;51.400;6.692;2023-02-28T13:13:16;5.38;;;3.10;;
78324;SDS011;67584;51.400;6.692;2023-02-28T13:15:58;3.83;;;2.38;;
78324;SDS011;67584;51.400;6.692;2023-02-28T13:18:30;3.80;;;2.50;;
78324;SDS011;67584;51.400;6.692;2023-02-28T13:21:21;3.03;;;2.40;;
78324;SDS011;67584;51.400;6.692;2023-02-28T13:24:07;4.18;;;2.58;;
78324;SDS011;67584;51.400;6.692;2023-02-28T13:35:15;3.15;;;2.30;;
78324;SDS011;67584;51.400;6.692;2023-02-28T13:39:51;4.22;;;2.40;;
78324;SDS011;67584;51.400;6.692;2023-02-28T13:47:33;3.35;;;2.65;;
78324;SDS011;67584;51.400;6.692;2023-02-28T14:01:07;2.70;;;2.47;;
78324;SDS011;67584;51.400;6.692;2023-02-28T14:06:53;4.03;;;2.80;;
78324;SDS011;67584;51.400;6.692;2023-02-28T14:09:29;3.60;;;2.83;;
78324;SDS011;67584;51.400;6.692;2023-02-28T14:17:59;3.72;;;2.80;;
78324;SDS011;67584;51.400;6.692;2023-02-28T14:20:29;5.22;;;3.42;;
78324;SDS011;67584;51.400;6.692;2023-02-28T14:25:47;6.03;;;2.90;;
78324;SDS011;67584;51.400;6.692;2023-02-28T14:31:42;3.30;;;3.00;;
78324;SDS011;67584;51.400;6.692;2023-02-28T14:36:42;4.10;;;3.00;;
78324;SDS011;67584;51.400;6.692;2023-02-28T14:39:13;4.45;;;3.58;;
78324;SDS011;67584;51.400;6.692;2023-02-28T14:42:00;4.80;;;3.28;;
78324;SDS011;67584;51.400;6.692;2023-02-28T14:44:30;4.63;;;3.20;;
78324;SDS011;67584;51.400;6.692;2023-02-28T14:47:00;4.05;;;3.05;;
78324;SDS011;67584;51.400;6.692;2023-02-28T14:49:35;3.72;;;3.05;;
78324;SDS011;67584;51.400;6.692;2023-02-28T14:52:06;4.35;;;3.90;;
78324;SDS011;67584;51.400;6.692;2023-02-28T14:54:39;3.55;;;2.90;;
78324;SDS011;67584;51.400;6.692;2023-02-28T14:57:20;3.85;;;3.55;;
78324;SDS011;67584;51.400;6.692;2023-02-28T15:02:40;3.42;;;3.00;;
78324;SDS011;67584;51.400;6.692;2023-02-28T15:05:16;4.00;;;3.40;;
78324;SDS011;67584;51.400;6.692;2023-02-28T15:10:38;4.93;;;3.58;;
78324;SDS011;67584;51.400;6.692;2023-02-28T15:13:09;4.38;;;3.97;;
78324;SDS011;67584;51.400;6.692;2023-02-28T15:15:43;4.15;;;3.40;;
78324;SDS011;67584;51.400;6.692;2023-02-28T15:20:58;3.95;;;3.47;;
78324;SDS011;67584;51.400;6.692;2023-02-28T15:23:27;3.75;;;3.22;;
78324;SDS011;67584;51.400;6.692;2023-02-28T15:25:57;4.10;;;3.70;;
78324;SDS011;67584;51.400;6.692;2023-02-28T15:28:24;4.25;;;3.47;;
78324;SDS011;67584;51.400;6.692;2023-02-28T15:30:55;3.10;;;2.70;;
78324;SDS011;67584;51.400;6.692;2023-02-28T15:33:25;4.13;;;3.13;;
78324;SDS011;67584;51.400;6.692;2023-02-28T15:38:39;5.28;;;3.30;;
78324;SDS011;67584;51.400;6.692;2023-02-28T15:41:05;4.03;;;3.42;;
78324;SDS011;67584;51.400;6.692;2023-02-28T15:43:46;3.75;;;3.45;;
78324;SDS011;67584;51.400;6.692;2023-02-28T15:46:12;4.93;;;3.33;;
78324;SDS011;67584;51.400;6.692;2023-02-28T15:48:47;3.80;;;3.40;;
78324;SDS011;67584;51.400;6.692;2023-02-28T15:51:32;4.05;;;3.67;;
78324;SDS011;67584;51.400;6.692;2023-02-28T15:54:03;4.65;;;3.88;;
78324;SDS011;67584;51.400;6.692;2023-02-28T15:56:43;5.00;;;4.10;;
78324;SDS011;67584;51.400;6.692;2023-02-28T15:59:14;4.55;;;4.10;;
78324;SDS011;67584;51.400;6.692;2023-02-28T16:01:43;3.88;;;3.25;;
78324;SDS011;67584;51.400;6.692;2023-02-28T16:04:16;4.00;;;3.53;;
78324;SDS011;67584;51.400;6.692;2023-02-28T16:06:45;4.95;;;4.25;;
78324;SDS011;67584;51.400;6.692;2023-02-28T16:09:23;3.65;;;3.10;;
78324;SDS011;67584;51.400;6.692;2023-02-28T16:11:50;3.83;;;3.53;;
78324;SDS011;67584;51.400;6.692;2023-02-28T16:14:19;4.75;;;4.35;;
78324;SDS011;67584;51.400;6.692;2023-02-28T16:16:51;4.60;;;3.38;;
78324;SDS011;67584;51.400;6.692;2023-02-28T16:19:22;3.97;;;3.58;;
78324;SDS011;67584;51.400;6.692;2023-02-28T16:21:48;3.88;;;3.30;;
78324;SDS011;67584;51.400;6.692;2023-02-28T16:24:15;4.43;;;3.13;;
78324;SDS011;67584;51.400;6.692;2023-02-28T16:26:41;3.45;;;3.15;;
78324;SDS011;67584;51.400;6.692;2023-02-28T16:29:18;5.32;;;3.45;;
78324;SDS011;67584;51.400;6.692;2023-02-28T16:31:54;4.63;;;3.90;;
78324;SDS011;67584;51.400;6.692;2023-02-28T16:34:21;5.50;;;3.72;;
78324;SDS011;67584;51.400;6.692;2023-02-28T16:36:47;4.00;;;3.60;;
78324;SDS011;67584;51.400;6.692;2023-02-28T16:39:15;4.20;;;3.72;;
78324;SDS011;67584;51.400;6.692;2023-02-28T16:41:50;3.95;;;3.65;;
78324;SDS011;67584;51.400;6.692;2023-02-28T16:46:59;4.85;;;3.70;;
78324;SDS011;67584;51.400;6.692;2023-02-28T16:49:25;5.75;;;3.85;;
78324;SDS011;67584;51.400;6.692;2023-02-28T16:51:57;3.70;;;3.28;;
78324;SDS011;67584;51.400;6.692;2023-02-28T16:54:29;4.45;;;3.72;;
78324;SDS011;67584;51.400;6.692;2023-02-28T16:56:55;4.22;;;3.83;;
78324;SDS011;67584;51.400;6.692;2023-02-28T16:59:22;4.65;;;3.55;;
78324;SDS011;67584;51.400;6.692;2023-02-28T17:01:50;5.45;;;3.92;;
78324;SDS011;67584;51.400;6.692;2023-02-28T17:04:17;4.30;;;3.85;;
78324;SDS011;67584;51.400;6.692;2023-02-28T17:06:43;5.25;;;4.47;;
78324;SDS011;67584;51.400;6.692;2023-02-28T17:09:20;6.03;;;4.30;;
78324;SDS011;67584;51.400;6.692;2023-02-28T17:11:47;4.43;;;3.90;;
78324;SDS011;67584;51.400;6.692;2023-02-28T17:14:16;6.60;;;3.95;;
78324;SDS011;67584;51.400;6.692;2023-02-28T17:16:42;4.88;;;3.80;;
78324;SDS011;67584;51.400;6.692;2023-02-28T17:19:15;5.47;;;3.50;;
78324;SDS011;67584;51.400;6.692;2023-02-28T17:21:42;5.47;;;4.18;;
78324;SDS011;67584;51.400;6.692;2023-02-28T17:24:09;4.60;;;4.00;;
78324;SDS011;67584;51.400;6.692;2023-02-28T17:26:37;10.27;;;6.43;;
78324;SDS011;67584;51.400;6.692;2023-02-28T17:29:19;5.68;;;4.38;;
78324;SDS011;67584;51.400;6.692;2023-02-28T17:31:46;5.05;;;4.10;;
78324;SDS011;67584;51.400;6.692;2023-02-28T17:34:12;5.57;;;4.10;;
78324;SDS011;67584;51.400;6.692;2023-02-28T17:36:43;6.00;;;4.35;;
78324;SDS011;67584;51.400;6.692;2023-02-28T17:39:11;4.78;;;4.15;;
78324;SDS011;67584;51.400;6.692;2023-02-28T17:41:46;7.13;;;5.25;;
78324;SDS011;67584;51.400;6.692;2023-02-28T17:44:14;10.90;;;6.53;;
78324;SDS011;67584;51.400;6.692;2023-02-28T17:46:41;9.40;;;6.03;;
78324;SDS011;67584;51.400;6.692;2023-02-28T17:49:08;8.65;;;5.32;;
78324;SDS011;67584;51.400;6.692;2023-02-28T17:51:34;8.43;;;4.72;;
78324;SDS011;67584;51.400;6.692;2023-02-28T17:54:00;6.43;;;4.78;;
78324;SDS011;67584;51.400;6.692;2023-02-28T17:56:26;7.03;;;4.90;;
78324;SDS011;67584;51.400;6.692;2023-02-28T17:58:56;4.85;;;4.25;;
78324;SDS011;67584;51.400;6.692;2023-02-28T18:01:30;6.55;;;4.15;;
78324;SDS011;67584;51.400;6.692;2023-02-28T18:03:59;6.18;;;4.70;;
78324;SDS011;67584;51.400;6.692;2023-02-28T18:06:40;9.50;;;6.43;;